Latest Weather Observations for Newdegate

IDW60801

Issued at 11:02 pm WST Tuesday 28 July 2015 (issued every 30 minutes, with the page automatically refreshed every 10 minutes)

About weather observations | Map of weather stations | Latest weather observations for WA | Other Formats
Station Details ID: 010692 Name: NEWDEGATE RESEARCH STATION Lat: -33.11 Lon: 118.84 Height: 320.0 m
Data from the previous 72 hours. | See also: Recent months at Newdegate
Date/Time
WST
Temp
°C
App
Temp
°C
Dew
Point
Rel
Hum
%
Delta-T
°C
Wind Press
QNH
hPa
Press
MSL
hPa
Rain
since 9 am
mm
Dir
 
Spd
km/h
Gust
km/h
Spd
kts
Gust
kts
28/11:00pm 10.3 10.0 8.7 90 0.8 CALM 0 0 0 0 1017.3 1017.6 0.2
28/10:30pm 10.4 10.1 8.8 90 0.8 CALM 0 0 0 0 1017.4 1017.7 0.2
28/10:00pm 10.4 9.4 8.7 89 0.8 NNW 4 6 2 3 1017.4 1017.7 0.2
28/09:30pm 10.5 8.9 8.6 88 0.9 N 7 11 4 6 1017.3 1017.6 0.0
28/09:00pm 10.8 8.8 8.6 86 1.1 N 9 15 5 8 1017.6 1017.9 0.0
28/08:30pm 11.7 7.7 8.4 80 1.7 NNW 19 24 10 13 1017.4 1017.7 0.0
28/08:00pm 11.8 8.7 8.8 82 1.5 NNW 15 20 8 11 1017.2 1017.5 0.0
28/07:30pm 11.7 9.8 9.1 84 1.3 NNW 9 15 5 8 1017.4 1017.7 0.0
28/07:00pm 11.5 9.6 9.2 86 1.2 NNW 9 13 5 7 1017.2 1017.5 0.0
28/06:30pm 11.6 9.4 9.2 85 1.2 NNW 11 15 6 8 1017.0 1017.3 0.0
28/06:00pm 11.6 8.9 9.0 84 1.3 NNW 13 17 7 9 1016.9 1017.2 0.0
28/05:30pm 11.7 8.2 8.9 83 1.4 NNW 17 22 9 12 1016.8 1017.1 0.0
28/05:00pm 11.8 8.6 8.5 80 1.7 N 15 22 8 12 1016.5 1016.8 0.0
28/04:30pm 11.8 8.6 8.3 79 1.8 N 15 22 8 12 1016.5 1016.8 0.0
28/04:00pm 12.0 8.8 8.3 78 1.9 N 15 20 8 11 1016.4 1016.7 0.0
28/03:30pm 11.8 7.7 7.9 77 1.9 N 19 24 10 13 1016.6 1016.9 0.0
28/03:00pm 11.8 7.5 7.7 76 2.0 N 20 24 11 13 1016.7 1017.0 0.0
28/02:30pm 11.8 7.6 7.5 75 2.1 N 19 24 10 13 1016.9 1017.2 0.0
28/02:00pm 11.7 7.4 7.2 74 2.2 NNW 19 26 10 14 1017.3 1017.6 0.0
28/01:30pm 11.6 6.3 6.9 73 2.3 NNW 24 33 13 18 1018.0 1018.3 0.0
28/01:00pm 12.3 6.8 6.1 66 3.0 NNW 24 32 13 17 1018.8 1019.2 0.0
28/12:30pm 12.9 5.8 5.3 60 3.6 NNW 32 41 17 22 1019.2 1019.5 0.0
28/12:00pm 13.3 7.2 4.7 56 4.0 N 26 37 14 20 1019.7 1020.0 0.0
28/11:30am 13.1 8.3 4.8 57 3.9 N 19 30 10 16 1020.1 1020.4 0.0
28/11:00am 12.8 8.7 4.5 57 3.8 N 15 24 8 13 1020.8 1021.1 0.0
28/10:30am 12.2 10.1 5.6 64 3.1 NNE 6 7 3 4 1021.6 1022.0 0.0
28/10:00am 11.9 8.7 5.1 63 3.2 NNE 11 15 6 8 1021.6 1022.0 0.0
28/09:30am 11.5 8.7 5.2 65 2.9 NNE 9 13 5 7 1022.4 1022.7 0.0
28/09:00am 10.7 8.4 5.5 70 2.4 NNE 7 11 4 6 1022.8 1023.1 0.0
28/08:30am 9.9 7.7 5.5 74 2.0 NNE 6 7 3 4 1023.2 1023.5 0.0
28/08:00am 9.4 7.5 4.8 73 2.1 NNE 4 4 2 2 1023.0 1023.3 0.0
28/07:30am 9.7 7.7 4.5 70 2.4 NNE 4 6 2 3 1022.9 1023.2 0.0
28/07:00am 10.8 8.3 4.5 65 2.9 N 7 13 4 7 1023.0 1023.3 0.0
28/06:30am 10.6 6.5 4.5 66 2.8 N 15 24 8 13 1023.4 1023.7 0.0
28/06:00am 10.1 5.1 4.7 69 2.5 N 20 28 11 15 1023.4 1023.7 0.0
28/05:30am 6.7 4.1 4.2 84 1.1 NNE 7 9 4 5 1023.2 1023.5 0.0
28/05:00am 6.6 3.9 3.9 83 1.2 NNE 7 9 4 5 1023.5 1023.8 0.0
28/04:30am 6.6 4.0 4.1 84 1.1 NNE 7 9 4 5 1024.0 1024.4 0.0
28/04:00am 6.2 3.5 3.7 84 1.1 NNE 7 9 4 5 1024.4 1024.8 0.0
28/03:30am 6.2 4.8 3.5 83 1.2 CALM 0 0 0 0 1024.6 1025.0 0.0
28/03:00am 6.3 4.8 3.1 80 1.4 CALM 0 0 0 0 1024.5 1024.9 0.0
28/02:30am 6.5 5.0 3.1 79 1.4 CALM 0 0 0 0 1024.3 1024.7 0.0
28/02:00am 6.6 3.8 3.0 78 1.5 E 7 9 4 5 1024.4 1024.8 0.0
28/01:30am 6.8 4.6 3.1 77 1.6 NE 4 6 2 3 1025.4 1025.8 0.0
28/01:00am 7.6 5.1 3.5 75 1.8 NNE 6 7 3 4 1025.6 1025.9 0.0
28/12:30am 7.5 5.0 3.9 78 1.6 NNE 6 9 3 5 1025.8 1026.1 0.0
28/12:00am 6.2 3.9 3.0 80 1.3 NE 4 6 2 3 1026.1 1026.4 0.0
 
Date/Time
WST
Temp
°C
App
Temp
°C
Dew
Point
Rel
Hum
%
Delta-T
°C
Wind Press
QNH
hPa
Press
MSL
hPa
Rain
since 9 am
mm
Dir
 
Spd
km/h
Gust
km/h
Spd
kts
Gust
kts
27/11:30pm 6.1 3.9 3.6 84 1.1 N 4 9 2 5 1026.3 1026.6 0.0
27/11:00pm 4.9 3.3 2.6 85 0.9 CALM 0 0 0 0 1026.6 1027.0 0.0
27/10:30pm 5.2 3.7 3.1 86 0.9 CALM 0 2 0 1 1026.6 1027.0 0.0
27/10:00pm 4.4 2.0 2.4 87 0.8 E 4 6 2 3 1027.0 1027.4 0.0
27/09:30pm 3.9 2.2 1.6 85 0.9 CALM 0 0 0 0 1027.2 1027.6 0.0
27/09:00pm 4.2 2.5 1.7 84 1.0 CALM 0 0 0 0 1027.5 1027.9 0.0
27/08:30pm 4.3 2.6 1.8 84 1.0 CALM 0 0 0 0 1027.7 1028.1 0.0
27/08:00pm 4.4 2.7 1.8 83 1.0 CALM 0 4 0 2 1028.0 1028.4 0.0
27/07:30pm 5.1 3.4 2.1 81 1.2 CALM 0 0 0 0 1027.9 1028.3 0.0
27/07:00pm 5.9 4.3 2.5 79 1.4 CALM 0 2 0 1 1027.8 1028.2 0.0
27/06:30pm 6.8 4.2 3.2 78 1.5 SE 6 7 3 4 1027.5 1027.9 0.0
27/06:00pm 6.7 5.2 3.0 77 1.6 CALM 0 0 0 0 1027.4 1027.8 0.0
27/05:30pm 10.2 8.3 3.0 61 3.2 NNE 2 4 1 2 1027.0 1027.4 0.0
27/05:00pm 13.4 10.7 3.5 51 4.5 N 7 9 4 5 1026.7 1027.1 0.0
27/04:30pm 16.0 13.0 4.1 45 5.6 NNE 9 15 5 8 1026.5 1026.8 0.0
27/04:00pm 16.4 12.2 3.8 43 5.9 N 15 20 8 11 1026.7 1027.1 0.0
27/03:30pm 17.2 12.8 4.5 43 6.1 N 17 24 9 13 1026.6 1027.0 0.0
27/03:00pm 17.1 13.0 4.4 43 6.1 N 15 26 8 14 1027.0 1027.4 0.0
27/02:30pm 17.2 13.2 4.9 44 6.0 N 15 20 8 11 1027.5 1027.9 0.0
27/02:00pm 16.8 12.4 4.5 44 5.9 N 17 24 9 13 1027.9 1028.3 0.0
27/01:30pm 16.6 11.7 4.9 46 5.7 N 20 28 11 15 1028.3 1028.7 0.0
27/01:00pm 15.7 10.9 5.6 51 4.9 N 20 30 11 16 1028.1 1028.5 0.0
27/12:30pm 15.4 10.1 5.0 50 5.0 N 22 32 12 17 1029.1 1029.4 0.0
27/12:00pm 15.2 9.9 4.9 50 4.9 N 22 30 12 16 1030.0 1030.4 0.0
27/11:30am 14.6 9.8 5.4 54 4.4 N 20 28 11 15 1030.9 1031.3 0.0
27/11:00am 13.8 8.6 5.4 57 4.0 N 22 30 12 16 1031.4 1031.8 0.0
27/10:30am 12.6 8.9 6.4 66 3.0 N 15 22 8 12 1031.9 1032.4 0.0
27/10:00am 9.6 6.9 5.8 77 1.8 NNE 9 13 5 7 1032.3 1032.7 0.0
27/09:30am 7.1 4.9 5.1 87 0.9 NNE 6 9 3 5 1032.6 1033.0 0.0
27/09:00am 5.5 3.8 4.2 91 0.6 NE 2 6 1 3 1032.6 1033.0 0.2
27/08:30am 4.3 2.4 3.1 92 0.5 E 2 4 1 2 1032.4 1032.8 0.2
27/08:00am 1.3 -0.7 0.1 92 0.4 CALM 0 0 0 0 1032.5 1032.9 0.0
27/07:30am -0.3 -2.5 -1.6 91 0.4 CALM 0 0 0 0 1032.5 1032.9 0.0
27/07:00am -1.0 -3.3 -2.3 91 0.4 CALM 0 0 0 0 1032.0 1032.5 0.0
27/06:30am -1.3 -3.6 -2.6 91 0.4 CALM 0 0 0 0 1032.2 1032.6 0.0
27/06:00am -0.3 -2.5 -1.6 91 0.4 CALM 0 0 0 0 1031.9 1032.4 0.0
27/05:30am 0.3 -2.6 -0.8 92 0.4 S 4 4 2 2 1031.9 1032.4 0.0
27/05:00am -0.5 -2.7 -1.8 91 0.4 CALM 0 0 0 0 1031.5 1031.9 0.0
27/04:30am 0.1 -2.1 -1.2 91 0.5 CALM 0 0 0 0 1031.3 1031.7 0.0
27/04:00am 0.3 -1.8 -1.0 91 0.5 CALM 0 0 0 0 1031.1 1031.5 0.0
27/03:30am -0.3 -2.5 -1.6 91 0.4 CALM 0 0 0 0 1031.2 1031.6 0.0
27/03:00am 0.4 -1.7 -0.9 91 0.5 CALM 0 0 0 0 1031.4 1031.8 0.0
27/02:30am 0.0 -2.2 -1.3 91 0.5 CALM 0 0 0 0 1031.6 1032.0 0.0
27/02:00am 0.3 -1.8 -1.0 91 0.5 CALM 0 0 0 0 1031.7 1032.1 0.0
27/01:30am 0.0 -2.2 -1.4 90 0.5 CALM 0 0 0 0 1031.7 1032.1 0.0
27/01:00am -0.2 -2.4 -1.6 90 0.5 CALM 0 0 0 0 1031.9 1032.4 0.0
27/12:30am -0.3 -2.5 -1.7 90 0.5 CALM 0 0 0 0 1031.9 1032.4 0.0
27/12:00am 0.2 -2.0 -1.4 89 0.6 CALM 0 0 0 0 1032.3 1032.7 0.0
 
Date/Time
WST
Temp
°C
App
Temp
°C
Dew
Point
Rel
Hum
%
Delta-T
°C
Wind Press
QNH
hPa
Press
MSL
hPa
Rain
since 9 am
mm
Dir
 
Spd
km/h
Gust
km/h
Spd
kts
Gust
kts
26/11:30pm 0.2 -2.4 -1.4 89 0.6 ESE 2 4 1 2 1032.2 1032.6 0.0
26/11:00pm 0.9 -1.6 -0.7 89 0.6 SSE 2 2 1 1 1032.5 1032.9 0.0
26/10:30pm 1.2 -1.6 -0.6 88 0.7 S 4 6 2 3 1032.9 1033.3 0.0
26/10:00pm 0.8 -2.1 -1.0 88 0.6 SSE 4 6 2 3 1032.9 1033.3 0.0
26/09:30pm 1.6 -0.4 -0.2 88 0.7 CALM 0 0 0 0 1032.8 1033.2 0.0
26/09:00pm 1.1 -1.0 -0.8 87 0.7 CALM 0 0 0 0 1032.8 1033.2 0.0
26/08:30pm 1.6 -0.5 -0.5 86 0.8 CALM 0 0 0 0 1032.4 1032.8 0.0
26/08:00pm 2.5 0.5 0.2 85 0.9 CALM 0 0 0 0 1032.2 1032.6 0.0
26/07:30pm 2.8 0.9 0.4 84 0.9 CALM 0 0 0 0 1031.7 1032.1 0.0
26/07:00pm 3.8 1.9 0.8 81 1.2 CALM 0 0 0 0 1031.5 1031.9 0.0
26/06:30pm 5.7 3.8 2.7 81 1.3 E 2 7 1 4 1031.4 1031.8 0.0
26/06:00pm 5.8 3.0 2.3 78 1.4 ESE 6 7 3 4 1031.4 1031.8 0.0
26/05:30pm 8.4 5.8 3.1 69 2.3 E 6 6 3 3 1031.2 1031.6 0.0
26/05:00pm 10.5 7.8 3.5 62 3.1 ESE 7 9 4 5 1030.9 1031.3 0.0
26/04:30pm 12.0 9.5 3.5 56 3.8 SE 6 7 3 4 1031.0 1031.4 0.0
26/04:00pm 12.6 10.1 3.6 54 4.1 ESE 6 11 3 6 1030.9 1031.3 0.0
26/03:30pm 13.2 10.9 2.7 49 4.7 N 4 7 2 4 1030.8 1031.2 0.0
26/03:00pm 13.2 10.5 2.7 49 4.7 NE 6 9 3 5 1030.7 1031.1 0.0
26/02:30pm 13.6 11.5 3.7 51 4.6 E 4 11 2 6 1030.7 1031.1 0.0
26/02:00pm 13.6 10.8 3.1 49 4.7 N 7 9 4 5 1030.7 1031.1 0.0
26/01:30pm 13.8 11.6 3.3 49 4.8 SW 4 9 2 5 1031.0 1031.4 0.0
26/01:00pm 12.7 10.8 3.1 52 4.3 WNW 2 6 1 3 1031.3 1031.7 0.0
26/12:30pm 11.8 9.1 3.6 57 3.7 SSW 7 11 4 6 1031.8 1032.3 0.0
26/12:00pm 11.9 9.4 3.7 57 3.7 ESE 6 11 3 6 1032.0 1032.5 0.0
26/11:30am 11.2 8.5 3.5 59 3.5 ESE 7 13 4 7 1032.4 1032.8 0.0
26/11:00am 10.9 8.4 3.9 62 3.1 E 6 9 3 5 1032.8 1033.2 0.0
26/10:30am 11.1 9.8 3.9 61 3.3 CALM 0 2 0 1 1033.0 1033.4 0.0
26/10:00am 9.9 7.2 3.6 65 2.8 SSE 7 9 4 5 1033.1 1033.5 0.0
26/09:30am 10.3 8.8 7.0 80 1.6 ESE 4 7 2 4 1033.1 1033.5 0.0
26/09:00am 8.7 7.7 7.2 90 0.7 SSE 2 6 1 3 1032.7 1033.1 1.0
26/08:30am 7.5 6.6 6.1 91 0.6 CALM 0 0 0 0 1032.4 1032.8 1.0
26/08:00am 6.0 4.8 4.8 92 0.5 CALM 0 2 0 1 1031.9 1032.4 1.0
26/07:30am 4.8 2.1 3.5 91 0.6 SSW 7 9 4 5 1031.4 1031.8 1.0
26/07:00am 4.6 1.4 3.3 91 0.5 SSW 9 11 5 6 1031.2 1031.6 1.0
26/06:30am 5.4 2.4 3.9 90 0.6 SSW 9 9 5 5 1030.9 1031.3 1.0
26/06:00am 5.9 3.0 4.5 91 0.6 SSW 9 11 5 6 1030.6 1031.0 1.0
26/05:30am 6.0 3.5 4.6 91 0.6 SSW 7 9 4 5 1030.3 1030.7 1.0
26/05:00am 5.7 3.1 4.3 91 0.6 SSW 7 9 4 5 1030.0 1030.4 1.0
26/04:30am 5.5 3.5 4.2 91 0.6 SSW 4 6 2 3 1029.8 1030.2 1.0
26/04:00am 5.7 4.1 4.3 91 0.6 SSW 2 2 1 1 1029.8 1030.2 1.0
26/03:30am 5.3 3.2 3.8 90 0.6 SSW 4 4 2 2 1029.8 1030.2 1.0
26/03:00am 5.7 4.4 4.2 90 0.6 CALM 0 2 0 1 1029.7 1030.1 1.0
26/02:30am 6.4 4.9 5.0 91 0.6 WSW 2 4 1 2 1029.7 1030.1 1.0
26/02:00am 7.2 4.9 5.8 91 0.6 SW 7 9 4 5 1029.7 1030.1 1.0
26/01:30am 7.4 5.2 6.0 91 0.6 SW 7 13 4 7 1029.7 1030.1 1.0
26/01:00am 7.4 5.4 6.2 92 0.6 SW 6 7 3 4 1029.6 1030.0 1.0
26/12:30am 5.8 4.6 4.4 91 0.6 CALM 0 0 0 0 1029.4 1029.8 1.0
26/12:00am 4.8 2.6 3.5 91 0.5 SW 4 4 2 2 1029.4 1029.8 1.0
 
Date/Time
WST
Temp
°C
App
Temp
°C
Dew
Point
Rel
Hum
%
Delta-T
°C
Wind Press
QNH
hPa
Press
MSL
hPa
Rain
since 9 am
mm
Dir
 
Spd
km/h
Gust
km/h
Spd
kts
Gust
kts
25/11:30pm 5.0 2.5 3.5 90 0.6 WSW 6 7 3 4 1029.5 1029.9 1.0

Other Formats:

Comma delimited format used in spreadsheet applications
http://www.bom.gov.au/fwo/IDW60801/IDW60801.94628.axf

JavaScript Object Notation format (JSON) in row-major order
http://www.bom.gov.au/fwo/IDW60801/IDW60801.94628.json